sensor_id;sensor_type;location;lat;lon;timestamp;temperature;humidity
19972;DHT22;10147;16.402;102.848;2022-10-16T00:00:40;22.10;99.90
19972;DHT22;10147;16.402;102.848;2022-10-16T00:03:11;22.10;99.90
19972;DHT22;10147;16.402;102.848;2022-10-16T00:05:43;22.10;99.90
19972;DHT22;10147;16.402;102.848;2022-10-16T00:08:14;22.10;99.90
19972;DHT22;10147;16.402;102.848;2022-10-16T00:10:44;22.10;99.90
19972;DHT22;10147;16.402;102.848;2022-10-16T00:13:15;22.10;99.90
19972;DHT22;10147;16.402;102.848;2022-10-16T00:15:47;22.10;99.90
19972;DHT22;10147;16.402;102.848;2022-10-16T00:18:17;22.20;99.90
19972;DHT22;10147;16.402;102.848;2022-10-16T00:20:48;22.20;99.90
19972;DHT22;10147;16.402;102.848;2022-10-16T00:23:20;22.20;99.90
19972;DHT22;10147;16.402;102.848;2022-10-16T00:25:59;22.20;99.90
19972;DHT22;10147;16.402;102.848;2022-10-16T00:28:30;22.20;99.90
19972;DHT22;10147;16.402;102.848;2022-10-16T00:31:05;22.30;99.90
19972;DHT22;10147;16.402;102.848;2022-10-16T00:33:38;22.30;99.90
19972;DHT22;10147;16.402;102.848;2022-10-16T00:36:12;22.30;99.90
19972;DHT22;10147;16.402;102.848;2022-10-16T00:38:44;22.30;99.90
19972;DHT22;10147;16.402;102.848;2022-10-16T00:41:16;22.40;99.90
19972;DHT22;10147;16.402;102.848;2022-10-16T00:43:58;22.40;99.90
19972;DHT22;10147;16.402;102.848;2022-10-16T00:46:39;22.50;99.90
19972;DHT22;10147;16.402;102.848;2022-10-16T00:49:15;22.50;99.90
19972;DHT22;10147;16.402;102.848;2022-10-16T00:51:49;22.50;99.90
19972;DHT22;10147;16.402;102.848;2022-10-16T00:54:23;22.50;99.90
19972;DHT22;10147;16.402;102.848;2022-10-16T00:56:55;22.50;99.90
19972;DHT22;10147;16.402;102.848;2022-10-16T00:59:34;22.60;99.90
19972;DHT22;10147;16.402;102.848;2022-10-16T01:02:11;22.60;99.90
19972;DHT22;10147;16.402;102.848;2022-10-16T01:04:47;22.60;99.90
19972;DHT22;10147;16.402;102.848;2022-10-16T01:10:57;22.80;99.90
19972;DHT22;10147;16.402;102.848;2022-10-16T01:13:38;23.10;99.90
19972;DHT22;10147;16.402;102.848;2022-10-16T01:19:14;23.20;99.90
19972;DHT22;10147;16.402;102.848;2022-10-16T01:21:48;23.20;99.90
19972;DHT22;10147;16.402;102.848;2022-10-16T01:24:40;23.20;99.90
19972;DHT22;10147;16.402;102.848;2022-10-16T01:27:30;23.20;99.90
19972;DHT22;10147;16.402;102.848;2022-10-16T01:33:10;23.20;99.90
19972;DHT22;10147;16.402;102.848;2022-10-16T01:35:46;23.20;99.90
19972;DHT22;10147;16.402;102.848;2022-10-16T01:38:37;23.20;99.90
19972;DHT22;10147;16.402;102.848;2022-10-16T01:41:24;23.20;99.90
19972;DHT22;10147;16.402;102.848;2022-10-16T01:44:10;23.30;99.90
19972;DHT22;10147;16.402;102.848;2022-10-16T01:46:43;23.40;99.90
19972;DHT22;10147;16.402;102.848;2022-10-16T01:49:16;23.50;99.90
19972;DHT22;10147;16.402;102.848;2022-10-16T01:51:51;23.40;99.90
19972;DHT22;10147;16.402;102.848;2022-10-16T01:54:23;23.50;99.90
19972;DHT22;10147;16.402;102.848;2022-10-16T01:56:57;23.60;99.90
19972;DHT22;10147;16.402;102.848;2022-10-16T01:59:31;23.60;99.90
19972;DHT22;10147;16.402;102.848;2022-10-16T02:02:07;23.60;99.90
19972;DHT22;10147;16.402;102.848;2022-10-16T02:04:42;23.50;99.90
19972;DHT22;10147;16.402;102.848;2022-10-16T02:07:14;23.50;99.90
19972;DHT22;10147;16.402;102.848;2022-10-16T02:09:46;23.60;99.90
19972;DHT22;10147;16.402;102.848;2022-10-16T02:12:30;23.60;99.90
19972;DHT22;10147;16.402;102.848;2022-10-16T02:15:02;23.70;99.90
19972;DHT22;10147;16.402;102.848;2022-10-16T02:17:32;23.60;99.90
19972;DHT22;10147;16.402;102.848;2022-10-16T02:20:04;23.70;99.90
19972;DHT22;10147;16.402;102.848;2022-10-16T02:22:38;23.70;99.90
19972;DHT22;10147;16.402;102.848;2022-10-16T02:25:34;23.70;99.90
19972;DHT22;10147;16.402;102.848;2022-10-16T02:28:31;23.70;99.90
19972;DHT22;10147;16.402;102.848;2022-10-16T02:31:06;23.80;99.90
19972;DHT22;10147;16.402;102.848;2022-10-16T02:33:40;23.90;99.90
19972;DHT22;10147;16.402;102.848;2022-10-16T02:36:12;23.80;99.90
19972;DHT22;10147;16.402;102.848;2022-10-16T02:38:43;23.80;99.90
19972;DHT22;10147;16.402;102.848;2022-10-16T02:41:15;23.80;99.90
19972;DHT22;10147;16.402;102.848;2022-10-16T02:43:45;23.90;99.90
19972;DHT22;10147;16.402;102.848;2022-10-16T02:46:17;24.00;99.90
19972;DHT22;10147;16.402;102.848;2022-10-16T02:48:48;24.00;99.90
19972;DHT22;10147;16.402;102.848;2022-10-16T02:51:18;24.00;99.90
19972;DHT22;10147;16.402;102.848;2022-10-16T02:53:49;24.10;99.90
19972;DHT22;10147;16.402;102.848;2022-10-16T02:56:19;24.20;99.90
19972;DHT22;10147;16.402;102.848;2022-10-16T02:58:49;24.30;99.90
19972;DHT22;10147;16.402;102.848;2022-10-16T03:01:20;24.40;99.90
19972;DHT22;10147;16.402;102.848;2022-10-16T03:03:51;24.30;99.90
19972;DHT22;10147;16.402;102.848;2022-10-16T03:06:21;24.20;99.90
19972;DHT22;10147;16.402;102.848;2022-10-16T03:08:52;24.30;99.90
19972;DHT22;10147;16.402;102.848;2022-10-16T03:11:22;24.30;99.90
19972;DHT22;10147;16.402;102.848;2022-10-16T03:13:53;24.40;99.90
19972;DHT22;10147;16.402;102.848;2022-10-16T03:16:23;24.50;99.90
19972;DHT22;10147;16.402;102.848;2022-10-16T03:18:54;24.60;99.90
19972;DHT22;10147;16.402;102.848;2022-10-16T03:21:24;24.80;99.90
19972;DHT22;10147;16.402;102.848;2022-10-16T03:23:54;24.80;99.90
19972;DHT22;10147;16.402;102.848;2022-10-16T03:26:24;24.80;99.90
19972;DHT22;10147;16.402;102.848;2022-10-16T03:28:55;24.90;99.90
19972;DHT22;10147;16.402;102.848;2022-10-16T03:31:26;25.00;99.90
19972;DHT22;10147;16.402;102.848;2022-10-16T03:33:57;25.10;99.90
19972;DHT22;10147;16.402;102.848;2022-10-16T03:36:28;25.30;99.90
19972;DHT22;10147;16.402;102.848;2022-10-16T03:38:59;25.30;99.90
19972;DHT22;10147;16.402;102.848;2022-10-16T03:41:30;25.30;99.90
19972;DHT22;10147;16.402;102.848;2022-10-16T03:44:00;25.20;99.90
19972;DHT22;10147;16.402;102.848;2022-10-16T03:46:31;25.40;99.90
19972;DHT22;10147;16.402;102.848;2022-10-16T03:49:01;25.60;99.90
19972;DHT22;10147;16.402;102.848;2022-10-16T03:51:36;25.60;99.90
19972;DHT22;10147;16.402;102.848;2022-10-16T03:54:07;25.60;99.90
19972;DHT22;10147;16.402;102.848;2022-10-16T03:56:38;25.60;99.90
19972;DHT22;10147;16.402;102.848;2022-10-16T03:59:08;25.60;99.90
19972;DHT22;10147;16.402;102.848;2022-10-16T04:01:40;25.70;99.90
19972;DHT22;10147;16.402;102.848;2022-10-16T04:04:10;25.80;99.90
19972;DHT22;10147;16.402;102.848;2022-10-16T04:06:40;25.70;99.90
19972;DHT22;10147;16.402;102.848;2022-10-16T04:09:10;25.70;99.90
19972;DHT22;10147;16.402;102.848;2022-10-16T04:11:40;25.80;99.90
19972;DHT22;10147;16.402;102.848;2022-10-16T04:14:11;25.80;99.90
19972;DHT22;10147;16.402;102.848;2022-10-16T04:16:42;25.90;99.90
19972;DHT22;10147;16.402;102.848;2022-10-16T04:19:12;26.00;99.90
19972;DHT22;10147;16.402;102.848;2022-10-16T04:21:43;25.90;99.90
19972;DHT22;10147;16.402;102.848;2022-10-16T04:24:13;26.00;99.90
19972;DHT22;10147;16.402;102.848;2022-10-16T04:26:44;25.90;99.90
19972;DHT22;10147;16.402;102.848;2022-10-16T04:29:15;25.90;99.90
19972;DHT22;10147;16.402;102.848;2022-10-16T04:31:46;25.90;99.90
19972;DHT22;10147;16.402;102.848;2022-10-16T04:34:16;25.80;99.90
19972;DHT22;10147;16.402;102.848;2022-10-16T04:36:50;25.90;99.90
19972;DHT22;10147;16.402;102.848;2022-10-16T04:39:20;25.90;99.90
19972;DHT22;10147;16.402;102.848;2022-10-16T04:41:50;25.90;99.90
19972;DHT22;10147;16.402;102.848;2022-10-16T04:44:21;25.90;99.90
19972;DHT22;10147;16.402;102.848;2022-10-16T04:46:52;25.90;99.90
19972;DHT22;10147;16.402;102.848;2022-10-16T04:49:23;26.00;99.90
19972;DHT22;10147;16.402;102.848;2022-10-16T04:51:53;25.90;99.90
19972;DHT22;10147;16.402;102.848;2022-10-16T04:54:24;26.00;99.90
19972;DHT22;10147;16.402;102.848;2022-10-16T04:56:54;26.30;99.90
19972;DHT22;10147;16.402;102.848;2022-10-16T04:59:26;26.40;99.90
19972;DHT22;10147;16.402;102.848;2022-10-16T05:01:56;26.50;99.90
19972;DHT22;10147;16.402;102.848;2022-10-16T05:04:27;26.50;99.90
19972;DHT22;10147;16.402;102.848;2022-10-16T05:06:57;26.60;99.90
19972;DHT22;10147;16.402;102.848;2022-10-16T05:09:28;26.80;99.90
19972;DHT22;10147;16.402;102.848;2022-10-16T05:11:58;26.90;99.90
19972;DHT22;10147;16.402;102.848;2022-10-16T05:14:30;27.00;99.90
19972;DHT22;10147;16.402;102.848;2022-10-16T05:17:01;27.00;99.90
19972;DHT22;10147;16.402;102.848;2022-10-16T05:19:31;27.00;99.90
19972;DHT22;10147;16.402;102.848;2022-10-16T05:22:02;27.10;99.90
19972;DHT22;10147;16.402;102.848;2022-10-16T05:24:32;27.10;99.90
19972;DHT22;10147;16.402;102.848;2022-10-16T05:27:02;27.10;99.90
19972;DHT22;10147;16.402;102.848;2022-10-16T05:29:33;27.10;99.90
19972;DHT22;10147;16.402;102.848;2022-10-16T05:32:03;27.00;99.90
19972;DHT22;10147;16.402;102.848;2022-10-16T05:34:34;27.00;99.90
19972;DHT22;10147;16.402;102.848;2022-10-16T05:37:04;26.90;99.90
19972;DHT22;10147;16.402;102.848;2022-10-16T05:39:34;26.90;99.90
19972;DHT22;10147;16.402;102.848;2022-10-16T05:42:06;26.90;99.90
19972;DHT22;10147;16.402;102.848;2022-10-16T05:44:36;26.90;99.90
19972;DHT22;10147;16.402;102.848;2022-10-16T05:47:07;26.80;99.90
19972;DHT22;10147;16.402;102.848;2022-10-16T05:49:39;26.90;99.90
19972;DHT22;10147;16.402;102.848;2022-10-16T05:52:10;26.90;99.90
19972;DHT22;10147;16.402;102.848;2022-10-16T05:54:40;27.00;99.90
19972;DHT22;10147;16.402;102.848;2022-10-16T05:57:11;26.90;99.90
19972;DHT22;10147;16.402;102.848;2022-10-16T05:59:41;26.90;99.90
19972;DHT22;10147;16.402;102.848;2022-10-16T06:02:15;26.90;99.90
19972;DHT22;10147;16.402;102.848;2022-10-16T06:04:47;26.80;99.90
19972;DHT22;10147;16.402;102.848;2022-10-16T06:07:17;26.80;99.90
19972;DHT22;10147;16.402;102.848;2022-10-16T06:09:51;26.70;99.90
19972;DHT22;10147;16.402;102.848;2022-10-16T06:12:22;26.90;99.90
19972;DHT22;10147;16.402;102.848;2022-10-16T06:14:53;26.90;99.90
19972;DHT22;10147;16.402;102.848;2022-10-16T06:17:23;26.90;99.90
19972;DHT22;10147;16.402;102.848;2022-10-16T06:19:55;27.00;99.90
19972;DHT22;10147;16.402;102.848;2022-10-16T06:22:26;27.00;99.90
19972;DHT22;10147;16.402;102.848;2022-10-16T06:24:56;26.90;99.90
19972;DHT22;10147;16.402;102.848;2022-10-16T06:27:26;26.90;99.90
19972;DHT22;10147;16.402;102.848;2022-10-16T06:29:57;26.80;99.90
19972;DHT22;10147;16.402;102.848;2022-10-16T06:32:28;26.80;99.90
19972;DHT22;10147;16.402;102.848;2022-10-16T06:34:59;26.80;99.90
19972;DHT22;10147;16.402;102.848;2022-10-16T06:37:29;26.90;99.90
19972;DHT22;10147;16.402;102.848;2022-10-16T06:40:00;27.00;99.90
19972;DHT22;10147;16.402;102.848;2022-10-16T06:42:30;27.10;99.90
19972;DHT22;10147;16.402;102.848;2022-10-16T06:45:00;27.10;99.90
19972;DHT22;10147;16.402;102.848;2022-10-16T06:47:31;27.10;99.90
19972;DHT22;10147;16.402;102.848;2022-10-16T06:50:02;27.00;99.90
19972;DHT22;10147;16.402;102.848;2022-10-16T06:52:34;27.10;99.90
19972;DHT22;10147;16.402;102.848;2022-10-16T06:55:05;27.10;99.90
19972;DHT22;10147;16.402;102.848;2022-10-16T06:57:35;27.10;99.90
19972;DHT22;10147;16.402;102.848;2022-10-16T07:00:06;27.20;99.90
19972;DHT22;10147;16.402;102.848;2022-10-16T07:02:36;27.20;99.90
19972;DHT22;10147;16.402;102.848;2022-10-16T07:05:09;27.40;99.90
19972;DHT22;10147;16.402;102.848;2022-10-16T07:07:48;27.40;99.90
19972;DHT22;10147;16.402;102.848;2022-10-16T07:10:21;27.30;99.90
19972;DHT22;10147;16.402;102.848;2022-10-16T07:12:54;27.30;99.90
19972;DHT22;10147;16.402;102.848;2022-10-16T07:15:25;27.10;99.90
19972;DHT22;10147;16.402;102.848;2022-10-16T07:17:57;27.30;99.90
19972;DHT22;10147;16.402;102.848;2022-10-16T07:20:28;27.30;99.90
19972;DHT22;10147;16.402;102.848;2022-10-16T07:22:58;27.40;99.90
19972;DHT22;10147;16.402;102.848;2022-10-16T07:25:29;27.70;99.90
19972;DHT22;10147;16.402;102.848;2022-10-16T07:27:59;27.70;99.90
19972;DHT22;10147;16.402;102.848;2022-10-16T07:30:30;27.50;99.90
19972;DHT22;10147;16.402;102.848;2022-10-16T07:33:01;27.60;99.90
19972;DHT22;10147;16.402;102.848;2022-10-16T07:35:31;27.40;99.90
19972;DHT22;10147;16.402;102.848;2022-10-16T07:38:01;27.30;99.90
19972;DHT22;10147;16.402;102.848;2022-10-16T07:40:32;27.40;99.90
19972;DHT22;10147;16.402;102.848;2022-10-16T07:43:03;27.30;99.90
19972;DHT22;10147;16.402;102.848;2022-10-16T07:45:35;27.30;99.90
19972;DHT22;10147;16.402;102.848;2022-10-16T07:48:06;27.20;99.90
19972;DHT22;10147;16.402;102.848;2022-10-16T07:50:37;27.20;99.90
19972;DHT22;10147;16.402;102.848;2022-10-16T07:53:08;27.20;99.90
19972;DHT22;10147;16.402;102.848;2022-10-16T07:55:40;27.20;99.90
19972;DHT22;10147;16.402;102.848;2022-10-16T07:58:10;27.40;99.90
19972;DHT22;10147;16.402;102.848;2022-10-16T08:00:41;27.40;99.90
19972;DHT22;10147;16.402;102.848;2022-10-16T08:03:11;27.50;99.90
19972;DHT22;10147;16.402;102.848;2022-10-16T08:05:42;27.40;99.90
19972;DHT22;10147;16.402;102.848;2022-10-16T08:08:14;27.50;99.90
19972;DHT22;10147;16.402;102.848;2022-10-16T08:10:45;27.60;99.90
19972;DHT22;10147;16.402;102.848;2022-10-16T08:13:16;27.40;99.90
19972;DHT22;10147;16.402;102.848;2022-10-16T08:15:47;27.50;99.90
19972;DHT22;10147;16.402;102.848;2022-10-16T08:18:17;27.40;99.90
19972;DHT22;10147;16.402;102.848;2022-10-16T08:20:48;27.40;99.90
19972;DHT22;10147;16.402;102.848;2022-10-16T08:23:19;27.30;99.90
19972;DHT22;10147;16.402;102.848;2022-10-16T08:25:49;27.30;99.90
19972;DHT22;10147;16.402;102.848;2022-10-16T08:28:21;27.10;99.90
19972;DHT22;10147;16.402;102.848;2022-10-16T08:30:52;27.30;99.90
19972;DHT22;10147;16.402;102.848;2022-10-16T08:33:22;27.20;99.90
19972;DHT22;10147;16.402;102.848;2022-10-16T08:35:53;27.30;99.90
19972;DHT22;10147;16.402;102.848;2022-10-16T08:38:25;27.10;99.90
19972;DHT22;10147;16.402;102.848;2022-10-16T08:41:26;27.20;99.90
19972;DHT22;10147;16.402;102.848;2022-10-16T08:44:31;27.20;99.90
19972;DHT22;10147;16.402;102.848;2022-10-16T08:50:10;27.20;99.90
19972;DHT22;10147;16.402;102.848;2022-10-16T08:52:43;27.40;99.90
19972;DHT22;10147;16.402;102.848;2022-10-16T08:58:23;27.20;99.90
19972;DHT22;10147;16.402;102.848;2022-10-16T09:01:00;27.30;99.90
19972;DHT22;10147;16.402;102.848;2022-10-16T09:06:54;27.10;99.90
19972;DHT22;10147;16.402;102.848;2022-10-16T09:21:35;27.00;99.90
19972;DHT22;10147;16.402;102.848;2022-10-16T09:24:15;26.90;99.90
19972;DHT22;10147;16.402;102.848;2022-10-16T09:26:47;26.90;99.90
19972;DHT22;10147;16.402;102.848;2022-10-16T09:29:19;26.90;99.90
19972;DHT22;10147;16.402;102.848;2022-10-16T09:31:50;26.80;99.90
19972;DHT22;10147;16.402;102.848;2022-10-16T09:34:31;26.80;99.90
19972;DHT22;10147;16.402;102.848;2022-10-16T09:37:05;26.80;99.90
19972;DHT22;10147;16.402;102.848;2022-10-16T09:39:50;26.70;99.90
19972;DHT22;10147;16.402;102.848;2022-10-16T09:42:26;26.70;99.90
19972;DHT22;10147;16.402;102.848;2022-10-16T09:44:58;26.70;99.90
19972;DHT22;10147;16.402;102.848;2022-10-16T09:47:30;26.70;99.90
19972;DHT22;10147;16.402;102.848;2022-10-16T09:50:20;26.70;99.90
19972;DHT22;10147;16.402;102.848;2022-10-16T09:53:05;26.60;99.90
19972;DHT22;10147;16.402;102.848;2022-10-16T09:55:36;26.50;99.90
19972;DHT22;10147;16.402;102.848;2022-10-16T09:58:13;26.50;99.90
19972;DHT22;10147;16.402;102.848;2022-10-16T10:00:53;26.50;99.90
19972;DHT22;10147;16.402;102.848;2022-10-16T10:03:43;26.50;99.90
19972;DHT22;10147;16.402;102.848;2022-10-16T10:06:35;26.50;99.90
19972;DHT22;10147;16.402;102.848;2022-10-16T10:09:37;26.50;99.90
19972;DHT22;10147;16.402;102.848;2022-10-16T10:12:28;26.50;99.90
19972;DHT22;10147;16.402;102.848;2022-10-16T10:15:10;26.40;99.90
19972;DHT22;10147;16.402;102.848;2022-10-16T10:18:00;26.40;99.90
19972;DHT22;10147;16.402;102.848;2022-10-16T10:20:36;26.40;99.90
19972;DHT22;10147;16.402;102.848;2022-10-16T10:23:28;26.30;99.90
19972;DHT22;10147;16.402;102.848;2022-10-16T10:26:20;26.30;99.90
19972;DHT22;10147;16.402;102.848;2022-10-16T10:32:24;26.20;99.90
19972;DHT22;10147;16.402;102.848;2022-10-16T10:41:34;26.20;99.90
19972;DHT22;10147;16.402;102.848;2022-10-16T10:50:44;26.10;99.90
19972;DHT22;10147;16.402;102.848;2022-10-16T10:53:29;26.00;99.90
19972;DHT22;10147;16.402;102.848;2022-10-16T10:59:45;26.10;99.90
19972;DHT22;10147;16.402;102.848;2022-10-16T11:05:43;25.90;99.90
19972;DHT22;10147;16.402;102.848;2022-10-16T11:11:32;26.00;99.90
19972;DHT22;10147;16.402;102.848;2022-10-16T11:14:31;25.90;99.90
19972;DHT22;10147;16.402;102.848;2022-10-16T11:23:25;25.90;99.90
19972;DHT22;10147;16.402;102.848;2022-10-16T11:26:00;25.90;99.90
19972;DHT22;10147;16.402;102.848;2022-10-16T11:28:42;25.90;99.90
19972;DHT22;10147;16.402;102.848;2022-10-16T11:34:32;25.80;99.90
19972;DHT22;10147;16.402;102.848;2022-10-16T11:37:25;25.70;99.90
19972;DHT22;10147;16.402;102.848;2022-10-16T11:40:19;25.60;99.90
19972;DHT22;10147;16.402;102.848;2022-10-16T11:42:58;25.70;99.90
19972;DHT22;10147;16.402;102.848;2022-10-16T11:45:42;25.60;99.90
19972;DHT22;10147;16.402;102.848;2022-10-16T11:54:41;25.50;99.90
19972;DHT22;10147;16.402;102.848;2022-10-16T11:57:29;25.50;99.90
19972;DHT22;10147;16.402;102.848;2022-10-16T12:00:19;25.60;99.90
19972;DHT22;10147;16.402;102.848;2022-10-16T12:09:02;25.60;99.90
19972;DHT22;10147;16.402;102.848;2022-10-16T12:11:38;25.70;99.90
19972;DHT22;10147;16.402;102.848;2022-10-16T12:14:35;25.70;99.90
19972;DHT22;10147;16.402;102.848;2022-10-16T12:17:38;25.60;99.90
19972;DHT22;10147;16.402;102.848;2022-10-16T12:20:25;25.50;99.90
19972;DHT22;10147;16.402;102.848;2022-10-16T12:23:00;25.50;99.90
19972;DHT22;10147;16.402;102.848;2022-10-16T12:25:40;25.50;99.90
19972;DHT22;10147;16.402;102.848;2022-10-16T12:28:21;25.60;99.90
19972;DHT22;10147;16.402;102.848;2022-10-16T12:31:03;25.70;99.90
19972;DHT22;10147;16.402;102.848;2022-10-16T12:33:36;25.70;99.90
19972;DHT22;10147;16.402;102.848;2022-10-16T12:36:15;25.60;99.90
19972;DHT22;10147;16.402;102.848;2022-10-16T12:38:52;25.50;99.90
19972;DHT22;10147;16.402;102.848;2022-10-16T12:41:32;25.50;99.90
19972;DHT22;10147;16.402;102.848;2022-10-16T12:44:03;25.60;99.90
19972;DHT22;10147;16.402;102.848;2022-10-16T12:46:41;25.50;99.90
19972;DHT22;10147;16.402;102.848;2022-10-16T12:49:34;25.50;99.90
19972;DHT22;10147;16.402;102.848;2022-10-16T12:52:42;25.50;99.90
19972;DHT22;10147;16.402;102.848;2022-10-16T12:55:19;25.50;99.90
19972;DHT22;10147;16.402;102.848;2022-10-16T13:04:33;25.40;99.90
19972;DHT22;10147;16.402;102.848;2022-10-16T13:07:37;25.50;99.90
19972;DHT22;10147;16.402;102.848;2022-10-16T13:10:37;25.50;99.90
19972;DHT22;10147;16.402;102.848;2022-10-16T13:13:34;25.40;99.90
19972;DHT22;10147;16.402;102.848;2022-10-16T13:19:34;25.00;99.90
19972;DHT22;10147;16.402;102.848;2022-10-16T13:25:45;24.60;99.90
19972;DHT22;10147;16.402;102.848;2022-10-16T13:28:22;24.50;99.90
19972;DHT22;10147;16.402;102.848;2022-10-16T13:31:00;24.40;99.90
19972;DHT22;10147;16.402;102.848;2022-10-16T13:33:37;24.50;99.90
19972;DHT22;10147;16.402;102.848;2022-10-16T13:36:23;24.50;99.90
19972;DHT22;10147;16.402;102.848;2022-10-16T13:39:14;24.40;99.90
19972;DHT22;10147;16.402;102.848;2022-10-16T13:42:06;24.40;99.90
19972;DHT22;10147;16.402;102.848;2022-10-16T13:44:48;24.50;99.90
19972;DHT22;10147;16.402;102.848;2022-10-16T13:47:25;24.80;99.90
19972;DHT22;10147;16.402;102.848;2022-10-16T13:50:08;24.90;99.90
19972;DHT22;10147;16.402;102.848;2022-10-16T13:52:43;25.00;99.90
19972;DHT22;10147;16.402;102.848;2022-10-16T13:55:16;25.00;99.90
19972;DHT22;10147;16.402;102.848;2022-10-16T13:57:47;25.00;99.90
19972;DHT22;10147;16.402;102.848;2022-10-16T14:00:22;25.10;99.90
19972;DHT22;10147;16.402;102.848;2022-10-16T14:03:00;25.00;99.90
19972;DHT22;10147;16.402;102.848;2022-10-16T14:05:32;25.10;99.90
19972;DHT22;10147;16.402;102.848;2022-10-16T14:08:02;25.10;99.90
19972;DHT22;10147;16.402;102.848;2022-10-16T14:10:34;25.10;99.90
19972;DHT22;10147;16.402;102.848;2022-10-16T14:13:06;25.00;99.90
19972;DHT22;10147;16.402;102.848;2022-10-16T14:15:37;24.80;99.90
19972;DHT22;10147;16.402;102.848;2022-10-16T14:18:19;24.90;99.90
19972;DHT22;10147;16.402;102.848;2022-10-16T14:20:51;24.90;99.90
19972;DHT22;10147;16.402;102.848;2022-10-16T14:23:38;24.80;99.90
19972;DHT22;10147;16.402;102.848;2022-10-16T14:26:16;24.90;99.90
19972;DHT22;10147;16.402;102.848;2022-10-16T14:28:49;24.90;99.90
19972;DHT22;10147;16.402;102.848;2022-10-16T14:31:35;24.70;99.90
19972;DHT22;10147;16.402;102.848;2022-10-16T14:34:28;24.60;99.90
19972;DHT22;10147;16.402;102.848;2022-10-16T14:37:34;24.70;99.90
19972;DHT22;10147;16.402;102.848;2022-10-16T14:40:05;24.50;99.90
19972;DHT22;10147;16.402;102.848;2022-10-16T14:42:36;24.60;99.90
19972;DHT22;10147;16.402;102.848;2022-10-16T14:45:09;24.70;99.90
19972;DHT22;10147;16.402;102.848;2022-10-16T14:47:50;24.70;99.90
19972;DHT22;10147;16.402;102.848;2022-10-16T14:50:22;24.70;99.90
19972;DHT22;10147;16.402;102.848;2022-10-16T14:52:53;24.60;99.90
19972;DHT22;10147;16.402;102.848;2022-10-16T14:55:24;24.60;99.90
19972;DHT22;10147;16.402;102.848;2022-10-16T14:57:54;24.50;99.90
19972;DHT22;10147;16.402;102.848;2022-10-16T15:00:28;24.50;99.90
19972;DHT22;10147;16.402;102.848;2022-10-16T15:02:58;24.50;99.90
19972;DHT22;10147;16.402;102.848;2022-10-16T15:05:29;24.50;99.90
19972;DHT22;10147;16.402;102.848;2022-10-16T15:08:02;24.50;99.90
19972;DHT22;10147;16.402;102.848;2022-10-16T15:10:39;24.50;99.90
19972;DHT22;10147;16.402;102.848;2022-10-16T15:13:14;24.60;99.90
19972;DHT22;10147;16.402;102.848;2022-10-16T15:15:46;24.60;99.90
19972;DHT22;10147;16.402;102.848;2022-10-16T15:18:19;24.60;99.90
19972;DHT22;10147;16.402;102.848;2022-10-16T15:20:50;24.50;99.90
19972;DHT22;10147;16.402;102.848;2022-10-16T15:23:22;24.50;99.90
19972;DHT22;10147;16.402;102.848;2022-10-16T15:25:58;24.50;99.90
19972;DHT22;10147;16.402;102.848;2022-10-16T15:28:29;24.60;99.90
19972;DHT22;10147;16.402;102.848;2022-10-16T15:30:59;24.60;99.90
19972;DHT22;10147;16.402;102.848;2022-10-16T15:33:29;24.60;99.90
19972;DHT22;10147;16.402;102.848;2022-10-16T15:36:07;24.60;99.90
19972;DHT22;10147;16.402;102.848;2022-10-16T15:38:38;24.60;99.90
19972;DHT22;10147;16.402;102.848;2022-10-16T15:41:09;24.60;99.90
19972;DHT22;10147;16.402;102.848;2022-10-16T15:43:40;24.60;99.90
19972;DHT22;10147;16.402;102.848;2022-10-16T15:46:17;24.70;99.90
19972;DHT22;10147;16.402;102.848;2022-10-16T15:48:49;24.60;99.90
19972;DHT22;10147;16.402;102.848;2022-10-16T15:51:20;24.60;99.90
19972;DHT22;10147;16.402;102.848;2022-10-16T15:53:51;24.60;99.90
19972;DHT22;10147;16.402;102.848;2022-10-16T15:56:23;24.60;99.90
19972;DHT22;10147;16.402;102.848;2022-10-16T15:58:55;24.50;99.90
19972;DHT22;10147;16.402;102.848;2022-10-16T16:01:28;24.50;99.90
19972;DHT22;10147;16.402;102.848;2022-10-16T16:03:59;24.50;99.90
19972;DHT22;10147;16.402;102.848;2022-10-16T16:06:47;24.50;99.90
19972;DHT22;10147;16.402;102.848;2022-10-16T16:09:18;24.50;99.90
19972;DHT22;10147;16.402;102.848;2022-10-16T16:11:50;24.40;99.90
19972;DHT22;10147;16.402;102.848;2022-10-16T16:14:21;24.40;99.90
19972;DHT22;10147;16.402;102.848;2022-10-16T16:16:55;24.40;99.90
19972;DHT22;10147;16.402;102.848;2022-10-16T16:19:25;24.40;99.90
19972;DHT22;10147;16.402;102.848;2022-10-16T16:21:55;24.40;99.90
19972;DHT22;10147;16.402;102.848;2022-10-16T16:24:26;24.40;99.90
19972;DHT22;10147;16.402;102.848;2022-10-16T16:26:57;24.30;99.90
19972;DHT22;10147;16.402;102.848;2022-10-16T16:29:27;24.40;99.90
19972;DHT22;10147;16.402;102.848;2022-10-16T16:31:58;24.40;99.90
19972;DHT22;10147;16.402;102.848;2022-10-16T16:34:29;24.50;99.90
19972;DHT22;10147;16.402;102.848;2022-10-16T16:36:59;24.40;99.90
19972;DHT22;10147;16.402;102.848;2022-10-16T16:39:30;24.40;99.90
19972;DHT22;10147;16.402;102.848;2022-10-16T16:42:00;24.50;99.90
19972;DHT22;10147;16.402;102.848;2022-10-16T16:44:34;24.40;99.90
19972;DHT22;10147;16.402;102.848;2022-10-16T16:47:05;24.30;99.90
19972;DHT22;10147;16.402;102.848;2022-10-16T16:49:35;24.30;99.90
19972;DHT22;10147;16.402;102.848;2022-10-16T16:52:05;24.40;99.90
19972;DHT22;10147;16.402;102.848;2022-10-16T16:54:36;24.40;99.90
19972;DHT22;10147;16.402;102.848;2022-10-16T16:57:07;24.40;99.90
19972;DHT22;10147;16.402;102.848;2022-10-16T16:59:39;24.50;99.90
19972;DHT22;10147;16.402;102.848;2022-10-16T17:02:10;24.40;99.90
19972;DHT22;10147;16.402;102.848;2022-10-16T17:04:41;24.40;99.90
19972;DHT22;10147;16.402;102.848;2022-10-16T17:07:12;24.40;99.90
19972;DHT22;10147;16.402;102.848;2022-10-16T17:09:42;24.30;99.90
19972;DHT22;10147;16.402;102.848;2022-10-16T17:12:12;24.30;99.90
19972;DHT22;10147;16.402;102.848;2022-10-16T17:14:43;24.40;99.90
19972;DHT22;10147;16.402;102.848;2022-10-16T17:17:14;24.40;99.90
19972;DHT22;10147;16.402;102.848;2022-10-16T17:19:44;24.40;99.90
19972;DHT22;10147;16.402;102.848;2022-10-16T17:22:14;24.30;99.90